createdAt,value
2023-03-16T00:01:59.029Z,80.54
2023-03-16T00:07:00.877Z,80.54
2023-03-16T00:12:03.746Z,80.56
2023-03-16T00:17:06.654Z,80.44
2023-03-16T00:22:08.511Z,80.84
2023-03-16T00:27:14.724Z,81.63
2023-03-16T00:32:20.768Z,81.25
2023-03-16T00:37:25.223Z,80.79
2023-03-16T00:42:29.909Z,80.43
2023-03-16T00:47:34.763Z,79.85
2023-03-16T00:52:37.808Z,79.51
2023-03-16T00:57:39.587Z,79.48
2023-03-16T01:02:42.195Z,79.77
2023-03-16T01:07:45.305Z,80.05
2023-03-16T01:12:47.174Z,80.28
2023-03-16T01:17:49.401Z,80.34
2023-03-16T01:22:51.365Z,80.43
2023-03-16T01:27:53.753Z,80.10
2023-03-16T01:32:55.881Z,80.23
2023-03-16T01:37:58.328Z,79.86
2023-03-16T01:43:04.586Z,80.61
2023-03-16T01:48:15.715Z,80.84
2023-03-16T01:53:19.904Z,80.80
2023-03-16T01:58:22.516Z,80.67
2023-03-16T02:03:26.827Z,80.19
2023-03-16T02:08:37.641Z,80.15
2023-03-16T02:13:39.547Z,80.05
2023-03-16T02:18:41.584Z,79.80
2023-03-16T02:23:46.045Z,80.83
2023-03-16T02:29:17.939Z,81.41
2023-03-16T02:34:21.510Z,81.54
2023-03-16T02:39:24.000Z,81.41
2023-03-16T02:44:37.010Z,81.13
2023-03-16T02:49:44.116Z,81.38
2023-03-16T02:54:45.901Z,81.16
2023-03-16T02:59:48.544Z,81.79
2023-03-16T03:04:54.447Z,82.32
2023-03-16T03:09:58.704Z,82.48
2023-03-16T03:15:00.926Z,82.21
2023-03-16T03:20:13.724Z,82.15
2023-03-16T03:25:18.426Z,81.79
2023-03-16T03:30:22.801Z,81.84
2023-03-16T03:35:24.661Z,82.60
2023-03-16T03:40:27.350Z,82.99
2023-03-16T03:45:34.547Z,82.86
2023-03-16T03:50:38.586Z,82.34
2023-03-16T03:56:03.356Z,82.46
2023-03-16T04:01:05.336Z,82.56
2023-03-16T04:06:08.298Z,82.49
2023-03-16T04:11:11.957Z,82.85
2023-03-16T04:16:16.350Z,83.01
2023-03-16T04:21:21.169Z,82.91
2023-03-16T04:26:22.985Z,82.76
2023-03-16T04:31:25.085Z,82.77
2023-03-16T04:36:27.444Z,82.68
2023-03-16T04:41:30.397Z,82.79
2023-03-16T04:46:36.389Z,83.21
2023-03-16T04:51:42.639Z,83.34
2023-03-16T04:56:48.016Z,83.60
2023-03-16T05:02:10.012Z,83.49
2023-03-16T05:07:12.504Z,83.40
2023-03-16T05:12:16.508Z,83.22
2023-03-16T05:17:19.243Z,82.99
2023-03-16T05:22:21.245Z,83.27
2023-03-16T05:27:49.613Z,83.47
2023-03-16T05:32:57.935Z,83.77
2023-03-16T05:38:00.362Z,83.83
2023-03-16T05:43:04.426Z,83.91
2023-03-16T05:48:08.337Z,84.35
2023-03-16T05:53:13.855Z,84.51
2023-03-16T05:58:16.414Z,84.55
2023-03-16T06:03:18.445Z,84.95
2023-03-16T06:08:21.084Z,84.82
2023-03-16T06:13:24.214Z,84.72
2023-03-16T06:18:26.270Z,84.39
2023-03-16T06:23:28.160Z,84.14
2023-03-16T06:28:31.124Z,83.92
2023-03-16T06:33:33.187Z,83.77
2023-03-16T06:38:35.106Z,83.39
2023-03-16T06:43:39.837Z,83.41
2023-03-16T06:48:42.145Z,82.79
2023-03-16T06:53:44.168Z,82.75
2023-03-16T06:58:46.148Z,82.52
2023-03-16T07:03:48.145Z,82.55
2023-03-16T07:08:57.472Z,81.97
2023-03-16T07:13:59.621Z,81.57
2023-03-16T07:19:02.095Z,81.48
2023-03-16T07:24:03.990Z,81.29
2023-03-16T07:29:10.096Z,81.13
2023-03-16T07:34:12.332Z,81.22
2023-03-16T07:39:18.634Z,81.63
2023-03-16T07:44:20.851Z,81.61
2023-03-16T07:49:23.570Z,81.47
2023-03-16T08:00:35.909Z,81.62
2023-03-16T08:05:38.016Z,81.24
2023-03-16T08:10:44.186Z,81.17
2023-03-16T08:15:58.360Z,80.85
2023-03-16T08:21:08.616Z,80.45
2023-03-16T08:26:10.838Z,79.40
2023-03-16T08:31:14.929Z,79.26
2023-03-16T08:36:25.819Z,79.16
2023-03-16T08:41:30.983Z,77.68
2023-03-16T08:46:34.577Z,77.22
2023-03-16T08:51:37.133Z,74.96
2023-03-16T08:56:39.105Z,73.30
2023-03-16T09:01:41.395Z,73.40
2023-03-16T09:06:43.195Z,73.17
2023-03-16T09:11:45.298Z,72.82
2023-03-16T09:16:47.048Z,71.50
2023-03-16T09:21:48.776Z,69.18
2023-03-16T09:26:50.722Z,70.34
2023-03-16T09:31:52.765Z,69.16
2023-03-16T09:36:55.473Z,66.48
2023-03-16T09:42:19.249Z,67.18
2023-03-16T09:47:34.096Z,65.76
2023-03-16T09:52:58.759Z,62.30
2023-03-16T09:58:04.696Z,59.68
2023-03-16T10:03:25.248Z,57.30
2023-03-16T10:08:40.947Z,58.19
2023-03-16T10:13:58.374Z,55.73
2023-03-16T10:19:11.524Z,56.17
2023-03-16T10:24:22.099Z,55.20
2023-03-16T10:29:23.750Z,56.54
2023-03-16T10:34:26.152Z,53.10
2023-03-16T10:39:36.694Z,52.83
2023-03-16T10:44:40.244Z,54.45
2023-03-16T10:49:48.717Z,52.96
2023-03-16T10:55:07.816Z,51.69
2023-03-16T11:00:16.030Z,53.22
2023-03-16T11:05:17.726Z,53.08
2023-03-16T11:10:46.001Z,51.55
2023-03-16T11:15:57.865Z,51.88
2023-03-16T11:21:12.757Z,53.31
2023-03-16T11:26:23.198Z,51.72
2023-03-16T11:31:43.065Z,50.46
2023-03-16T11:36:56.755Z,49.36
2023-03-16T11:42:07.833Z,45.58
2023-03-16T11:47:34.141Z,44.87
2023-03-16T11:52:47.005Z,45.30
2023-03-16T11:58:03.997Z,46.18
2023-03-16T12:03:25.231Z,47.35
2023-03-16T12:08:48.695Z,48.98
2023-03-16T12:13:53.544Z,49.69
2023-03-16T12:19:06.745Z,47.81
2023-03-16T12:24:18.198Z,45.95
2023-03-16T12:29:32.818Z,46.02
2023-03-16T12:35:00.984Z,45.10
2023-03-16T12:40:09.342Z,44.82
2023-03-16T12:45:34.188Z,46.51
2023-03-16T12:50:49.261Z,47.63
2023-03-16T12:55:51.633Z,48.67
2023-03-16T13:00:59.588Z,46.24
2023-03-16T13:06:03.586Z,45.95
2023-03-16T13:11:12.148Z,44.33
2023-03-16T13:16:25.918Z,44.46
2023-03-16T13:21:35.855Z,45.82
2023-03-16T13:26:49.927Z,46.56
2023-03-16T13:31:53.148Z,45.37
2023-03-16T13:36:57.259Z,45.18
2023-03-16T13:42:09.808Z,45.46
2023-03-16T13:47:20.199Z,43.18
2023-03-16T13:52:34.349Z,41.05
2023-03-16T13:57:39.184Z,41.52
2023-03-16T14:02:43.617Z,41.11
2023-03-16T14:07:51.139Z,40.96
2023-03-16T14:12:58.766Z,40.29
2023-03-16T14:18:37.394Z,39.71
2023-03-16T14:23:47.863Z,39.50
2023-03-16T14:29:07.356Z,40.05
2023-03-16T14:34:29.677Z,39.12
2023-03-16T14:39:31.432Z,39.46
2023-03-16T14:44:35.959Z,40.78
2023-03-16T14:49:40.987Z,37.80
2023-03-16T14:54:44.566Z,38.52
2023-03-16T14:59:46.899Z,36.90
2023-03-16T15:04:49.497Z,37.40
2023-03-16T15:09:53.901Z,37.31
2023-03-16T15:15:14.304Z,38.04
2023-03-16T15:20:24.276Z,37.65
2023-03-16T15:25:35.773Z,38.75
2023-03-16T15:30:38.207Z,38.06
2023-03-16T15:35:41.611Z,37.40
2023-03-16T15:40:45.477Z,39.19
2023-03-16T15:45:47.982Z,40.44
2023-03-16T15:51:25.690Z,41.55
2023-03-16T15:56:30.919Z,43.29
2023-03-16T16:01:40.155Z,43.49
2023-03-16T16:06:42.479Z,44.08
2023-03-16T16:11:47.155Z,44.19
2023-03-16T16:16:48.947Z,43.77
2023-03-16T16:21:50.698Z,44.51
2023-03-16T16:26:55.271Z,45.15
2023-03-16T16:31:57.860Z,46.16
2023-03-16T16:36:59.701Z,46.87
2023-03-16T16:42:01.897Z,47.79
2023-03-16T16:47:06.358Z,48.62
2023-03-16T16:52:15.264Z,49.00
2023-03-16T16:57:20.849Z,49.82
2023-03-16T17:02:32.225Z,51.13
2023-03-16T17:07:33.950Z,52.13
2023-03-16T17:12:35.929Z,52.96
2023-03-16T17:17:37.669Z,53.47
2023-03-16T17:22:39.369Z,54.40
2023-03-16T17:27:42.926Z,55.23
2023-03-16T17:32:44.667Z,55.19
2023-03-16T17:37:47.973Z,55.65
2023-03-16T17:42:50.444Z,56.43
2023-03-16T17:47:54.042Z,57.08
2023-03-16T17:52:56.700Z,57.83
2023-03-16T17:57:59.189Z,58.79
2023-03-16T18:03:04.602Z,59.09
2023-03-16T18:08:26.181Z,59.59
2023-03-16T18:13:32.775Z,60.20
2023-03-16T18:18:40.285Z,60.72
2023-03-16T18:23:42.291Z,61.16
2023-03-16T18:28:44.687Z,62.07
2023-03-16T18:33:52.736Z,62.43
2023-03-16T18:38:58.618Z,62.90
2023-03-16T18:44:17.661Z,63.44
2023-03-16T18:49:32.698Z,64.02
2023-03-16T18:54:38.899Z,64.91
2023-03-16T18:59:41.122Z,65.67
2023-03-16T19:04:43.122Z,66.03
2023-03-16T19:09:45.079Z,66.17
2023-03-16T19:14:47.782Z,66.80
2023-03-16T19:19:49.754Z,67.45
2023-03-16T19:24:55.388Z,67.39
2023-03-16T19:29:58.924Z,67.40
2023-03-16T19:35:01.231Z,67.71
2023-03-16T19:40:03.369Z,67.93
2023-03-16T19:45:06.828Z,68.24
2023-03-16T19:50:15.869Z,68.55
2023-03-16T19:55:21.127Z,68.92
2023-03-16T20:00:26.112Z,69.45
2023-03-16T20:05:31.575Z,70.16
2023-03-16T20:10:33.573Z,70.76
2023-03-16T20:15:37.650Z,71.05
2023-03-16T20:20:39.653Z,71.24
2023-03-16T20:25:41.792Z,71.13
2023-03-16T20:30:43.591Z,71.31
2023-03-16T20:35:46.897Z,71.42
2023-03-16T20:40:52.246Z,71.67
2023-03-16T20:45:57.384Z,72.11
2023-03-16T20:51:00.659Z,72.55
2023-03-16T20:56:03.213Z,73.72
2023-03-16T21:01:05.780Z,74.81
2023-03-16T21:06:23.686Z,74.95
2023-03-16T21:11:37.320Z,74.17
2023-03-16T21:16:40.608Z,73.34
2023-03-16T21:21:42.579Z,72.69
2023-03-16T21:26:47.063Z,72.40
2023-03-16T21:31:49.614Z,72.36
2023-03-16T21:36:51.620Z,73.09
2023-03-16T21:41:53.711Z,73.71
2023-03-16T21:46:58.471Z,74.12
2023-03-16T21:52:01.512Z,74.48
2023-03-16T21:57:13.929Z,74.80
2023-03-16T22:02:27.729Z,75.06
2023-03-16T22:07:29.601Z,75.77
2023-03-16T22:12:31.960Z,76.31
2023-03-16T22:17:35.989Z,77.40
2023-03-16T22:22:37.704Z,76.90
2023-03-16T22:27:40.102Z,76.85
2023-03-16T22:32:42.796Z,76.54
2023-03-16T22:37:44.797Z,76.73
2023-03-16T22:42:47.564Z,77.71
2023-03-16T22:48:19.605Z,78.01
2023-03-16T22:53:45.956Z,77.55
2023-03-16T22:58:51.343Z,78.42
2023-03-16T23:03:53.791Z,78.72
2023-03-16T23:08:56.093Z,78.30
2023-03-16T23:13:59.738Z,77.54
2023-03-16T23:19:03.250Z,77.34
2023-03-16T23:24:05.705Z,77.13
2023-03-16T23:29:08.106Z,77.14
2023-03-16T23:34:12.229Z,77.20
2023-03-16T23:39:14.376Z,77.63
2023-03-16T23:44:18.669Z,77.61
2023-03-16T23:49:23.578Z,77.52
2023-03-16T23:54:30.815Z,77.12
2023-03-16T23:59:33.176Z,77.06
